Thursday, May 24, 2018, 4:29 AM GMT
Back to Local

CWTY, Trois Rivieres

Location: , , Canada Lat: 46.35
Local Time: 4:29 AM GMT ( 4:29 GMT) Lon: -72.517
Time Zone: GMT Elev: 19 ft

Show me the last for .
Show Coded

Time T Td Feel RH Dir Speed Gust Alt SLP Vis Weather Sky Remarks
2018-05-24 04:00 50 41 - 70 10° 6 - - 30.01 0 None
2018-05-24 03:00 51 42 - 70 40° 7 - - 30.00 0 None
2018-05-24 02:00 53 43 - 70 20° 8 - - 29.99 0 None
2018-05-24 01:00 57 45 - 63 30° 5 - - 29.96 0 None
2018-05-24 00:00 60 42 - 51 50° 6 - - 29.94 0 None
2018-05-23 23:00 63 40 - 42 40° 5 - - 29.93 0 Peak wind: 19 mph (17 kts) from 320° at 26 min
2018-05-23 22:00 67 22 - 18 340° 9 - - 29.91 0 None
2018-05-23 21:00 68 20 - 15 360° 8 - - 29.90 0 None
2018-05-23 20:00 68 22 - 17 320° 9 20 - 29.89 0 Peak wind: 24 mph (21 kts) from 300° at 16 min
2018-05-23 19:00 67 24 - 19 360° 8 21 - 29.89 0 Peak wind: 20 mph (18 kts) from 340° at 00 min
2018-05-23 18:00 66 29 - 24 340° 13 22 - 29.89 0 Peak wind: 21 mph (19 kts) from 320° at 35 min
2018-05-23 17:00 64 36 - 34 340° 9 - - 29.89 0 None
2018-05-23 16:00 63 42 - 47 330° 10 21 - 29.89 0 Peak wind: 21 mph (19 kts) from 340° at 44 min
2018-05-23 15:00 60 46 - 60 360° 10 - - 29.89 0 Peak wind: 23 mph (20 kts) from 360° at 47 min
2018-05-23 14:00 57 51 - 82 340° 12 18 - 29.88 0 Peak wind: 19 mph (17 kts) from 350° at 44 min
2018-05-23 13:00 56 53 - 88 300° 8 - - 29.87 0 None
2018-05-23 12:00 55 53 - 94 230° 12 - - 29.84 0 Peak wind: 19 mph (17 kts) from 220° at 20 min
2018-05-23 11:00 55 53 - 93 230° 12 - - 29.84 0 None
2018-05-23 10:00 55 54 - 96 190° 8 - - 29.82 0 None
2018-05-23 09:00 55 54 - 96 200° 10 - - 29.80 0 None
2018-05-23 08:00 54 53 - 96 220° 10 - - 29.80 0 None
2018-05-23 07:00 55 54 - 95 190° 6 - - 29.80 0 None
2018-05-23 06:00 56 54 - 92 180° 5 - - 29.82 0 None
2018-05-23 05:00 57 54 - 91 200° 8 - - 29.83 0 None

Support USWX by starting your Amazon purchase here.